Motte Rimrock Reserve, California Weather observations

Data are for 10 minute period ending at time listed.
 Day   Time   Solar   Ave.   Ave.  Ave.  Vector  Max.   Baro.   Total    
  of    of     Rad.   Air    Rel.  Wind   Wind   Wind  Press.  Precip.   
Year   Day            Temp.  Hum.  Speed  Dir.   Gust                    
2017   (PST)  Kw/m2    F      %     mph   deg.    mph    mb.     in.     
-------------------------------------------------------------------------
 118    1:20   0.00   52.0    93    4.5   225     6.2   939.5    0.00 
 118    1:30   0.00   52.1    92    6.0   229     7.1   939.5    0.00 
 118    1:40   0.00   51.9    91    7.8   234     9.8   939.4    0.00 
 118    1:50   0.00   52.2    90    7.6   222     8.8   939.2    0.00 
 118    2:00   0.00   52.8    88    5.0   196     6.8   939.2    0.00 
 118    2:10   0.00   53.0    87    4.5   162     7.5   939.2    0.00 
 118    2:20   0.00   52.2    89    5.7   203     6.9   939.2    0.00 
 118    2:30   0.00   52.0    90    4.3   195     5.3   939.2    0.00 
 118    2:40   0.00   51.2    91    5.9   110     9.0   939.5    0.00 
 118    2:50   0.00   50.9    93    8.0   133    11.2   939.4    0.00 
 118    3:00   0.00   50.8    93    6.8   138     9.6   939.3    0.00 
 118    3:10   0.00   50.7    94    6.5   175     8.5   939.4    0.00 
 118    3:20   0.00   50.4    94    5.8   213     8.0   939.4    0.00 
 118    3:30   0.00   50.4    94    4.8   193     6.4   939.5    0.00 
 118    3:40   0.00   49.8    94    5.7   204     7.5   939.5    0.00 
 118    3:50   0.00   49.9    95    6.3   193     7.7   939.5    0.00 
 118    4:00   0.00   49.6    95    5.6   203     8.0   939.5    0.00 
 118    4:10   0.00   50.4    98    6.0   209     6.8   939.6    0.00 
 118    4:20   0.00   50.8    95    5.6   206     8.6   939.6    0.00 
 118    4:30   0.00   51.0    94    5.1   203     6.6   939.8    0.00 
 118    4:40   0.00   50.9    93    4.8   204     6.4   939.8    0.00 
 118    4:50   0.00   50.5    93    4.7   176     6.0   939.9    0.00 
 118    5:00   0.00   50.3    94    5.7   176     8.1   939.9    0.00 
 118    5:10   0.00   50.6    94    5.1   193     6.4   940.0    0.00 
 118    5:20   0.00   50.1    94    4.1   212     6.0   940.2    0.00 
 118    5:30   0.02   50.0    94    3.6   198     5.8   940.3    0.00 
 118    5:40   0.04   50.7    93    2.3   250     4.1   940.3    0.00 
 118    5:50   0.04   51.8    84    3.9   304     8.9   940.4    0.00 
 118    6:00   0.03   54.6    55    8.5   326    12.9   940.5    0.00 
 118    6:10   0.05   55.5    51    8.3   329    11.0   940.6    0.00 
 118    6:20   0.12   56.1    51    8.2   321    11.1   940.7    0.00 
 118    6:30   0.09   56.8    50    7.9   321    11.2   940.8    0.00 
 118    6:40   0.11   57.4    46    8.4   334    13.2   940.9    0.00 
 118    6:50   0.21   59.0    45    7.4   358    13.5   941.1    0.00 
 118    7:00   0.25   58.4    56    5.3    13    10.6   941.2    0.00 
 118    7:10   0.26   60.2    40   10.1   350    16.4   941.4    0.00 
 118    7:20   0.35   63.0    30    9.3   341    15.6   941.6    0.00 
 118    7:30   0.41   64.4    26   11.9   335    18.0   941.6    0.00 
 118    7:40   0.37   65.0    26   10.5   332    16.0   941.8    0.00 
 118    7:50   0.49   66.4    24    9.8   331    18.1   941.9    0.00 
 118    8:00   0.50   66.3    24   11.8   329    19.7   941.8    0.00 
 118    8:10   0.57   66.7    26   12.0   326    19.0   941.8    0.00 
 118    8:20   0.61   66.3    27   14.2   319    23.4   941.8    0.00 
 118    8:30   0.65   67.0    26   16.1   325    24.5   941.8    0.00 
 118    8:40   0.67   67.3    26   15.1   324    23.7   941.8    0.00 
 118    8:50   0.70   67.9    27   15.8   314    25.9   941.8    0.00 
 118    9:00   0.73   68.3    28   16.1   307    23.2   941.8    0.00 
 118    9:10   0.76   68.8    27   16.3   320    24.0   941.8    0.00 
 118    9:20   0.78   69.2    26   19.8   313    28.7   941.7    0.00 
 118    9:30   0.81   69.5    23   22.5   318    30.1   941.7    0.00 
 118    9:40   0.83   70.4    20   20.0   318    28.3   941.8    0.00 
 118    9:50   0.85   71.6    17   19.8   329    28.1   941.9    0.00 
 118   10:00   0.87   72.3    14   21.4   323    29.7   941.9    0.00 
 118   10:10   0.89   73.1    14   19.5   324    27.3   942.0    0.00 
 118   10:20   0.91   73.1    14   22.2   320    31.3   941.9    0.00 
 118   10:30   0.93   72.9    14   23.8   320    31.4   941.9    0.00 
 118   10:40   0.94   73.4    14   21.6   317    31.4   941.9    0.00 
 118   10:50   0.95   73.0    14   23.0   319    32.0   941.9    0.00 
 118   11:00   0.96   73.8    14   22.0   321    31.4   941.9    0.00 
 118   11:10   0.97   73.9    14   24.2   319    33.2   941.7    0.00 
 118   11:20   0.97   74.2    14   24.1   325    33.5   941.8    0.00 
 118   11:30   0.98   73.9    13   25.4   320    32.1   941.6    0.00 
 118   11:40   0.98   74.7    13   22.0   318    31.5   941.5    0.00 
 118   11:50   0.99   74.2    13   24.7   323    32.2   941.3    0.00 
 118   12:00   0.98   74.6    13   22.8   321    33.0   941.2    0.00 
 118   12:10   0.98   75.2    13   23.9   326    36.8   941.1    0.00 
 118   12:20   0.96   75.8    13   21.2   323    31.9   941.0    0.00 
 118   12:30   0.94   75.6    13   21.9   310    30.3   940.9    0.00 
 118   12:40   0.96   76.1    13   22.1   318    30.2   940.9    0.00 
 118   12:50   0.95   76.5    13   20.8   323    29.3   941.0    0.00 
 118   13:00   0.92   76.3    13   16.9   331    28.4   941.0    0.00 
 118   13:10   0.88   75.4    14   16.8   323    26.2   941.1    0.00 
 118   13:20   0.90   75.7    14   12.1   299    21.2   941.0    0.00 
 118   13:30   0.89   76.4    13   11.2   331    19.2   940.9    0.00 
 118   13:40   0.85   77.5    12   10.7   349    19.8   940.7    0.00 
 118   13:50   0.83   77.5    13   14.3   345    21.0   940.5    0.00 
 118   14:00   0.82   77.5    12    8.2     3    15.9   940.4    0.00 
 118   14:10   0.81   78.0    13    9.5   360    14.3   940.3    0.00 
 118   14:20   0.75   77.4    14   11.0   316    16.1   940.1    0.00 
 118   14:30   0.71   77.0    15    9.0   269    16.7   939.9    0.00 
 118   14:40   0.71   77.2    15   12.3   299    18.9   939.7    0.00 
 118   14:50   0.69   77.3    14   11.2   280    21.7   939.7    0.00 
 118   15:00   0.66   78.0    14    7.3   296    18.5   939.7    0.00 
 118   15:10   0.59   77.0    15    8.2   314    13.5   939.7    0.00 
 118   15:20   0.54   77.2    15   10.4   304    22.8   939.5    0.00 
 118   15:30   0.52   76.9    15   10.7   314    15.6   939.6    0.00 
 118   15:40   0.47   76.2    15    6.7   313    11.7   939.7    0.00 
 118   15:50   0.44   76.4    16   10.7   295    20.9   939.5    0.00 
 118   16:00   0.43   76.4    16    5.9   280    13.1   939.6    0.00 
 118   16:10   0.41   77.0    16    6.6   293    11.8   939.6    0.00 
 118   16:20   0.32   76.5    17    9.1   278    15.3   939.5    0.00 
 118   16:30   0.33   76.0    17   11.7   292    18.0   939.5    0.00 
 118   16:40   0.29   75.7    18   12.3   289    17.5   939.6    0.00 
 118   16:50   0.29   75.4    18   14.7   286    21.7   939.7    0.00 
 118   17:00   0.27   74.8    19   15.5   288    21.5   939.9    0.00 
 118   17:10   0.22   74.2    20   13.4   275    21.3   940.0    0.00 
 118   17:20   0.22   74.0    19   14.0   284    19.4   940.1    0.00 
 118   17:30   0.17   73.5    20   14.5   282    18.4   940.2    0.00 
 118   17:40   0.12   72.8    19   14.3   276    19.3   940.2    0.00 
 118   17:50   0.08   71.8    19   13.3   283    18.6   940.2    0.00 
 118   18:00   0.07   71.3    19   11.3   282    17.0   940.4    0.00 
 118   18:10   0.05   70.8    20    9.4   278    12.3   940.5    0.00 
 118   18:20   0.02   69.9    21    9.0   279    12.3   940.6    0.00 
 118   18:30   0.02   69.2    21   10.8   296    15.1   940.7    0.00 
 118   18:40   0.01   68.5    21   11.8   291    15.3   940.7    0.00 
 118   18:50   0.01   68.1    21   11.4   301    13.8   940.8    0.00 
 118   19:00   0.00   67.7    22   12.5   305    16.9   941.0    0.00 
 118   19:10   0.00   67.5    22   12.1   305    15.1   941.2    0.00 
 118   19:20   0.00   66.8    23   10.4   312    15.3   941.4    0.00 
 118   19:30   0.00   65.5    25    8.6   318    11.3   941.7    0.00 
 118   19:40   0.00   65.5    25    7.6   338     9.3   942.0    0.00 
 118   19:50   0.00   65.7    23    8.3   347    10.9   942.1    0.00 
 118   20:00   0.00   66.0    22    9.2   348    11.5   942.2    0.00 
 118   20:10   0.00   65.9    22    9.4   354    13.8   942.4    0.00 
 118   20:20   0.00   66.4    21   10.8   343    14.5   942.5    0.00 
 118   20:30   0.00   66.1    20   10.5   342    15.3   942.7    0.00 
 118   20:40   0.00   65.9    19   10.7   338    15.2   942.8    0.00 
 118   20:50   0.00   65.8    18   12.5   335    17.0   942.8    0.00 
 118   21:00   0.00   65.8    18   13.4   333    18.0   942.9    0.00 
 118   21:10   0.00   65.5    17   12.4   332    16.9   943.0    0.00 
 118   21:20   0.00   65.2    17   11.5   335    14.8   943.2    0.00 
 118   21:30   0.00   65.1    16   11.2   348    16.1   943.4    0.00 
 118   21:40   0.00   65.2    15   10.5   354    15.6   943.6    0.00 
 118   21:50   0.00   64.7    15    9.0   354    12.6   943.7    0.00 
 118   22:00   0.00   64.6    15    9.6   350    13.2   943.8    0.00 
 118   22:10   0.00   63.8    16    8.9   352    13.1   943.9    0.00 
 118   22:20   0.00   65.0    13   10.2    10    17.6   943.9    0.00 
 118   22:30   0.00   65.4    12   13.4     7    19.2   944.0    0.00 
 118   22:40   0.00   65.6    11   13.2    13    18.5   944.3    0.00 
 118   22:50   0.00   66.0    10   13.6    21    23.9   944.5    0.00 
 118   23:00   0.00   66.1    10   11.6    19    19.1   944.8    0.00 
 118   23:10   0.00   64.9    11    8.6    16    13.9   944.9    0.00 
 118   23:20   0.00   64.4    11   11.3    16    19.6   945.1    0.00 
 118   23:30   0.00   64.7    11    8.9    34    14.8   945.2    0.00 
 118   23:40   0.00   64.5    11   12.4    24    18.9   945.3    0.00 
 118   23:50   0.00   64.6    11   13.2    28    21.3   945.4    0.00 
 119    0:00   0.00   64.8    11   14.0    23    21.6   945.5    0.00 
 119    0:10   0.00   64.0    11   10.3    14    16.6   945.7    0.00 
 119    0:20   0.00   63.3    12   11.5    18    17.3   945.8    0.00 
 119    0:30   0.00   63.5    11   10.9    23    20.5   945.8    0.00 
 119    0:40   0.00   62.5    12    7.7    15    12.9   945.9    0.00 
 119    0:50   0.00   61.8    12    7.8    11    12.9   945.9    0.00 
 119    1:00   0.00   60.9    13    7.5     5    11.7   945.9    0.00 
 119    1:10   0.00   61.8    12    9.4    15    21.3   946.0    0.00 

Return to Motte Rimrock Reserve graphs page.


Western Regional Climate Center,wrcc@dri.edu